Time;durP1;ratioP1;P1;durP2;ratioP2;P2;SDS_P1;SDS_P2;PMS_P1;PMS_P2;Temp;Humidity;BMP_temperature;BMP_pressure;BME280_temperature;BME280_humidity;BME280_pressure;Samples;Min_cycle;Max_cycle;Signal;HPM_P1;HPM_P2
2022/01/22 00:00:26;;;;;;;21.92;5.18;;;;;;;11.05;66.63;102157.78;6036258;23;119624;-86
2022/01/22 00:02:52;;;;;;;22.85;5.13;;;;;;;11.04;66.82;102155.47;6062508;23;119246;-84
2022/01/22 00:05:20;;;;;;;21.10;4.32;;;;;;;11.09;66.96;102168.72;6011746;23;119823;-85
2022/01/22 00:07:46;;;;;;;24.50;4.95;;;;;;;11.04;66.62;102161.72;6011946;23;119877;-84
2022/01/22 00:10:19;;;;;;;15.15;3.80;;;;;;;11.08;66.52;102158.91;5987810;23;122330;-83
2022/01/22 00:15:14;;;;;;;19.85;4.47;;;;;;;10.97;66.46;102152.84;6062906;23;119942;-86
2022/01/22 00:17:40;;;;;;;19.15;4.82;;;;;;;11.01;66.51;102154.34;6040174;23;121875;-86
2022/01/22 00:20:07;;;;;;;21.65;4.95;;;;;;;10.95;66.77;102142.28;6011401;23;119476;-86
2022/01/22 00:22:35;;;;;;;22.20;5.28;;;;;;;10.94;66.64;102145.44;6035789;23;121671;-84
2022/01/22 00:25:02;;;;;;;16.00;4.38;;;;;;;11.00;66.50;102141.78;6011503;23;123371;-85
2022/01/22 00:27:29;;;;;;;20.13;5.45;;;;;;;10.98;66.32;102140.66;6036347;23;120031;-85
2022/01/22 00:29:55;;;;;;;20.98;4.72;;;;;;;10.96;66.83;102143.06;5988172;23;121971;-83
2022/01/22 00:32:21;;;;;;;19.90;4.43;;;;;;;10.91;66.80;102141.56;5986592;23;122759;-85
2022/01/22 00:34:47;;;;;;;22.02;4.93;;;;;;;10.95;66.68;102136.00;6035074;23;120132;-86
2022/01/22 00:37:13;;;;;;;18.83;4.45;;;;;;;10.94;66.73;102140.72;6011572;23;121711;-85
2022/01/22 00:39:38;;;;;;;20.35;4.40;;;;;;;10.90;66.71;102144.72;6040257;23;119760;-85
2022/01/22 00:42:14;;;;;;;16.63;4.85;;;;;;;10.90;67.09;102150.22;6011830;23;119933;-83
2022/01/22 00:44:40;;;;;;;18.33;5.10;;;;;;;10.87;66.67;102154.56;6011240;23;119414;-83
2022/01/22 00:47:06;;;;;;;19.95;4.97;;;;;;;10.86;66.80;102163.19;6036145;23;120138;-82
2022/01/22 00:49:33;;;;;;;20.65;4.93;;;;;;;10.85;66.63;102167.91;6062058;23;120113;-82
2022/01/22 00:51:59;;;;;;;18.40;4.72;;;;;;;10.85;66.60;102167.16;6032817;23;122532;-85
2022/01/22 00:54:25;;;;;;;23.67;5.38;;;;;;;10.79;66.75;102158.59;6034265;23;120238;-85
2022/01/22 00:56:50;;;;;;;16.55;4.57;;;;;;;10.80;66.61;102165.66;6035606;23;119607;-85
2022/01/22 00:59:17;;;;;;;21.77;4.95;;;;;;;10.75;66.62;102169.66;6059044;23;119655;-84
2022/01/22 01:01:43;;;;;;;25.75;5.00;;;;;;;10.81;66.58;102175.44;6066773;23;119484;-83
2022/01/22 01:04:10;;;;;;;20.80;4.75;;;;;;;10.80;66.59;102182.13;6035393;23;119984;-84
2022/01/22 01:06:36;;;;;;;18.80;4.50;;;;;;;10.81;66.67;102191.13;5987676;23;119471;-84
2022/01/22 01:09:06;;;;;;;18.15;5.57;;;;;;;10.83;66.47;102189.53;6036204;23;119795;-84
2022/01/22 01:11:35;;;;;;;21.45;5.28;;;;;;;10.75;66.93;102188.09;5986524;23;122755;-84
2022/01/22 01:14:03;;;;;;;18.75;4.50;;;;;;;10.74;66.94;102192.03;6035207;23;120689;-83
2022/01/22 01:16:55;;;;;;;;;;;;;;;;;;;;;
2022/01/22 01:33:18;;;;;;;19.52;5.75;;;;;;;10.74;66.88;102200.25;6009267;23;124001;-86
2022/01/22 01:35:35;;;;;;;21.58;5.15;;;;;;;10.78;66.84;102209.22;6028982;23;120113;-85
2022/01/22 01:38:02;;;;;;;24.75;5.80;;;;;;;10.73;66.84;102210.47;6010257;23;122037;-85
2022/01/22 01:40:30;;;;;;;26.55;6.07;;;;;;;10.77;66.80;102213.16;5985680;23;122669;-83
2022/01/22 01:45:34;;;;;;;21.55;5.47;;;;;;;10.80;66.91;102225.25;6039325;23;121027;-82
2022/01/22 01:48:06;;;;;;;16.75;5.90;;;;;;;10.79;66.71;102224.47;6010721;23;119347;-84
2022/01/22 01:50:35;;;;;;;23.30;5.88;;;;;;;10.73;66.94;102217.91;5985324;23;120587;-85
2022/01/22 01:53:11;;;;;;;21.17;5.65;;;;;;;10.81;66.94;102227.59;5985636;23;121143;-84
2022/01/22 01:56:00;;;;;;;;;;;;;;;;;;;;;
2022/01/22 01:58:18;;;;;;;15.70;5.85;;;;;;;10.84;67.02;102240.50;6034731;23;122418;-84
2022/01/22 02:00:46;;;;;;;15.98;5.50;;;;;;;10.81;66.96;102227.59;6008684;23;122564;-86
2022/01/22 02:03:13;;;;;;;19.25;5.68;;;;;;;10.85;67.29;102228.31;5986847;23;120715;-85
2022/01/22 02:05:41;;;;;;;20.20;5.32;;;;;;;10.87;67.19;102227.91;6034960;23;119792;-83
2022/01/22 02:08:09;;;;;;;20.48;6.00;;;;;;;10.92;66.90;102233.72;6014604;23;122611;-81
2022/01/22 02:11:07;;;;;;;23.08;6.40;;;;;;;10.94;67.12;102234.09;6020946;23;120152;-86
2022/01/22 02:14:09;;;;;;;23.50;8.55;;;;;;;10.89;66.91;102220.81;6039149;23;120247;-84
2022/01/22 02:25:32;;;;;;;20.80;6.00;;;;;;;10.97;66.99;102244.22;6037794;23;119422;-85
2022/01/22 02:28:00;;;;;;;16.38;5.70;;;;;;;10.98;66.65;102245.00;6037678;23;119586;-84
2022/01/22 02:30:30;;;;;;;14.18;6.03;;;;;;;10.97;66.93;102243.44;6037374;23;119682;-83
2022/01/22 02:38:22;;;;;;;23.30;8.50;;;;;;;11.01;67.06;102264.16;6037789;23;119477;-86
2022/01/22 02:40:49;;;;;;;19.45;5.80;;;;;;;10.98;67.24;102261.47;5988353;23;122180;-84
2022/01/22 02:43:16;;;;;;;17.90;7.05;;;;;;;11.06;66.66;102263.69;6012661;23;120284;-84
2022/01/22 02:45:45;;;;;;;18.02;5.50;;;;;;;11.02;66.54;102252.00;5988668;23;119795;-83
2022/01/22 02:48:11;;;;;;;13.23;5.22;;;;;;;11.03;66.19;102256.28;6036138;23;121829;-86
2022/01/22 02:50:37;;;;;;;14.75;5.85;;;;;;;11.06;66.42;102263.69;6011996;23;119699;-81
2022/01/22 02:53:05;;;;;;;17.92;5.97;;;;;;;11.05;66.27;102258.63;6036240;23;119630;-83
2022/01/22 02:55:30;;;;;;;17.23;6.10;;;;;;;11.02;66.56;102254.75;6040339;23;120158;-84
2022/01/22 02:57:58;;;;;;;18.92;6.53;;;;;;;11.06;66.31;102271.94;5988692;23;120006;-83
2022/01/22 03:00:25;;;;;;;23.10;7.13;;;;;;;11.14;66.38;102288.34;5988949;23;119433;-83
2022/01/22 03:02:51;;;;;;;25.02;7.90;;;;;;;11.15;66.51;102279.66;6036252;23;122702;-87
2022/01/22 03:05:20;;;;;;;19.70;7.18;;;;;;;11.13;66.03;102278.53;5990127;23;119910;-83
2022/01/22 03:07:52;;;;;;;19.23;6.47;;;;;;;11.10;66.41;102282.88;6038046;23;119533;-86
2022/01/22 03:10:23;;;;;;;21.25;7.20;;;;;;;11.15;66.47;102281.66;6012369;23;122524;-85
2022/01/22 03:15:59;;;;;;;20.40;7.30;;;;;;;11.08;66.20;102275.03;6036868;23;120206;-85
2022/01/22 03:18:46;;;;;;;17.27;6.82;;;;;;;11.11;66.14;102265.19;6041195;23;122750;-85
2022/01/22 03:29:17;;;;;;;18.02;6.65;;;;;;;11.15;66.12;102273.41;6036445;23;121923;-83
2022/01/22 03:31:43;;;;;;;20.48;6.68;;;;;;;11.02;66.17;102262.97;6035324;23;120109;-83
2022/01/22 03:34:10;;;;;;;17.98;6.55;;;;;;;11.12;66.22;102263.22;6036507;23;119985;-83
2022/01/22 03:36:37;;;;;;;23.38;7.78;;;;;;;11.17;66.18;102271.00;6060942;23;122415;-85
2022/01/22 03:39:07;;;;;;;20.92;7.80;;;;;;;11.12;66.13;102266.78;6017583;23;119939;-85
2022/01/22 03:41:34;;;;;;;19.70;8.27;;;;;;;11.14;66.33;102269.09;6012424;23;120095;-84
2022/01/22 03:44:00;;;;;;;22.33;8.15;;;;;;;11.14;66.14;102272.63;6036422;23;122740;-83
2022/01/22 03:46:25;;;;;;;22.00;7.72;;;;;;;11.14;66.41;102280.88;6063567;23;119671;-85
2022/01/22 03:48:54;;;;;;;19.30;7.25;;;;;;;11.16;66.17;102289.47;5989893;23;122063;-85
2022/01/22 03:51:19;;;;;;;27.95;8.30;;;;;;;11.11;66.19;102272.66;5988272;23;122736;-83
2022/01/22 03:53:45;;;;;;;26.08;8.30;;;;;;;11.16;66.25;102283.19;5989468;23;119907;-86
2022/01/22 03:56:12;;;;;;;21.52;8.15;;;;;;;11.05;66.29;102278.63;6037216;23;122049;-84
2022/01/22 03:59:07;;;;;;;23.85;7.22;;;;;;;11.17;66.18;102293.75;6023225;23;123150;-85
2022/01/22 04:04:42;;;;;;;17.38;7.07;;;;;;;11.20;65.84;102294.91;6036858;23;122710;-83
2022/01/22 04:09:56;;;;;;;;;;;;;;;11.17;66.11;102301.22;6038079;23;121174;-83
2022/01/22 04:12:30;;;;;;;21.70;7.00;;;;;;;11.19;66.18;102299.63;6012432;23;120040;-85
2022/01/22 04:15:01;;;;;;;21.40;6.68;;;;;;;11.16;66.38;102294.97;6037121;23;119831;-84
2022/01/22 04:25:34;;;;;;;17.30;6.35;;;;;;;11.16;66.01;102299.69;6040379;23;119759;-82
2022/01/22 04:28:01;;;;;;;16.90;6.10;;;;;;;11.21;66.31;102301.94;5988077;23;119659;-85
2022/01/22 04:30:29;;;;;;;19.15;7.10;;;;;;;11.21;66.37;102294.47;6012195;23;119888;-84
2022/01/22 04:32:56;;;;;;;15.85;6.30;;;;;;;11.22;65.87;102300.75;6035173;23;122661;-83
2022/01/22 04:35:22;;;;;;;17.65;6.38;;;;;;;11.21;65.93;102301.94;6036974;23;119456;-85
2022/01/22 04:37:49;;;;;;;21.50;6.50;;;;;;;11.22;66.24;102304.28;6038022;23;120934;-83
2022/01/22 04:40:16;;;;;;;14.77;5.53;;;;;;;11.14;66.10;102293.81;6013786;23;119672;-82
2022/01/22 04:42:45;;;;;;;16.13;6.80;;;;;;;11.12;66.29;102282.44;6014349;23;119570;-82
2022/01/22 04:55:27;;;;;;;16.52;6.63;;;;;;;11.08;66.38;102283.28;6038022;23;119924;-84
2022/01/22 04:57:52;;;;;;;16.35;7.22;;;;;;;11.16;66.37;102299.69;6038391;23;122515;-84
2022/01/22 05:00:18;;;;;;;18.15;6.93;;;;;;;11.14;66.23;102296.56;6013002;23;119967;-83
2022/01/22 05:03:04;;;;;;;17.50;6.80;;;;;;;11.18;66.41;102302.78;6037646;23;119912;-81
2022/01/22 05:05:38;;;;;;;15.32;6.82;;;;;;;11.14;66.34;102305.59;6064045;23;119675;-83
2022/01/22 05:08:23;;;;;;;17.27;6.22;;;;;;;11.12;66.57;102294.25;6063919;23;120206;-83
2022/01/22 05:11:00;;;;;;;22.15;6.50;;;;;;;11.12;66.67;102304.41;5996670;23;119672;-82
2022/01/22 05:13:27;;;;;;;18.65;6.47;;;;;;;11.09;66.67;102306.03;6013546;23;122658;-84
2022/01/22 05:15:53;;;;;;;19.17;6.50;;;;;;;11.08;66.36;102302.50;6014193;23;120024;-82
2022/01/22 05:18:19;;;;;;;16.67;5.72;;;;;;;11.10;66.66;102304.84;6013849;23;120363;-83
2022/01/22 05:20:53;;;;;;;14.60;5.40;;;;;;;11.12;66.53;102316.22;6036839;23;122876;-84
2022/01/22 05:23:22;;;;;;;16.33;6.43;;;;;;;11.10;66.51;102312.28;6037880;23;120581;-82
2022/01/22 05:25:59;;;;;;;17.80;5.85;;;;;;;11.08;66.56;102309.97;6038586;23;119532;-85
2022/01/22 05:31:52;;;;;;;16.08;5.57;;;;;;;11.10;66.60;102318.56;6032732;23;119568;-84
2022/01/22 05:37:30;;;;;;;24.98;6.95;;;;;;;11.10;66.57;102317.78;6037954;23;119849;-84
2022/01/22 05:39:59;;;;;;;26.13;7.63;;;;;;;11.03;66.34;102302.97;6013322;23;119885;-82
2022/01/22 05:42:25;;;;;;;22.50;7.25;;;;;;;11.14;66.38;102321.28;6036401;23;119761;-82
2022/01/22 05:44:51;;;;;;;21.08;7.13;;;;;;;11.11;66.78;102320.13;6037668;23;119560;-82
2022/01/22 05:47:23;;;;;;;25.92;7.43;;;;;;;11.13;66.54;102325.22;6038039;23;122424;-85
2022/01/22 05:49:49;;;;;;;23.50;7.45;;;;;;;11.18;66.59;102327.50;6037138;23;120405;-83
2022/01/22 05:52:21;;;;;;;22.60;7.57;;;;;;;11.14;66.51;102324.03;6013662;23;119684;-83
2022/01/22 05:55:05;;;;;;;;;;;;;;;;;;;;;
2022/01/22 06:00:00;;;;;;;23.23;8.15;;;;;;;11.18;66.25;102335.75;6036946;23;119724;-82
2022/01/22 06:02:26;;;;;;;29.00;8.18;;;;;;;11.19;66.38;102340.03;5987789;23;123376;-81
2022/01/22 06:04:58;;;;;;;20.42;7.63;;;;;;;11.15;66.31;102323.63;6014159;23;120055;-80
2022/01/22 06:07:25;;;;;;;20.90;7.05;;;;;;;11.18;66.54;102331.03;6037855;23;121853;-81
2022/01/22 06:13:08;;;;;;;17.17;6.05;;;;;;;11.24;66.68;102328.59;6036844;23;119733;-81
2022/01/22 06:15:31;;;;;;;11.27;5.32;;;;;;;11.21;66.25;102330.19;6012815;23;122022;-81
2022/01/22 06:18:20;;;;;;;8.55;5.00;;;;;;;11.23;66.66;102332.53;6041592;23;120040;-82
2022/01/22 06:20:49;;;;;;;10.13;4.13;;;;;;;11.18;66.62;102325.53;6036591;23;119694;-82
2022/01/22 06:23:15;;;;;;;8.73;3.60;;;;;;;11.14;66.91;102324.81;6037199;23;121671;-82
2022/01/22 06:25:41;;;;;;;11.05;3.60;;;;;;;11.22;66.81;102330.97;6037729;23;119518;-81
2022/01/22 06:28:07;;;;;;;16.60;4.38;;;;;;;11.13;66.67;102316.97;6037570;23;121635;-83
2022/01/22 06:30:33;;;;;;;14.25;4.20;;;;;;;11.22;66.58;102328.22;6037187;23;123204;-83
2022/01/22 06:32:59;;;;;;;17.52;3.50;;;;;;;11.21;66.66;102337.66;6013894;23;119968;-83
2022/01/22 06:35:25;;;;;;;19.83;4.10;;;;;;;11.22;66.79;102340.00;5990033;23;122766;-84
2022/01/22 06:37:53;;;;;;;20.90;3.72;;;;;;;11.20;66.86;102334.13;6061572;23;120503;-84
2022/01/22 06:43:35;;;;;;;26.13;4.25;;;;;;;11.13;66.71;102336.22;6060960;23;120334;-81
2022/01/22 06:46:27;;;;;;;24.90;4.03;;;;;;;11.13;66.45;102344.44;6013525;23;120475;-82
2022/01/22 06:49:16;;;;;;;24.42;4.45;;;;;;;11.21;66.89;102345.91;6018131;23;122252;-84
2022/01/22 06:52:13;;;;;;;29.67;4.20;;;;;;;11.17;66.62;102345.19;6037419;23;119952;-87
2022/01/22 06:54:43;;;;;;;23.88;3.78;;;;;;;11.15;67.02;102342.06;5989668;23;119465;-86
2022/01/22 06:57:09;;;;;;;24.70;4.32;;;;;;;11.15;66.79;102339.31;6037678;23;122842;-85
2022/01/22 06:59:35;;;;;;;23.08;3.85;;;;;;;11.18;66.65;102346.72;6036251;23;119938;-86
2022/01/22 07:02:04;;;;;;;29.77;3.90;;;;;;;11.18;67.01;102352.22;5990041;23;120029;-84
2022/01/22 07:04:31;;;;;;;27.65;4.75;;;;;;;11.23;66.97;102357.25;6039841;23;119797;-87
2022/01/22 07:07:24;;;;;;;31.90;4.88;;;;;;;11.22;66.90;102361.97;5994021;23;120089;-85
2022/01/22 07:09:52;;;;;;;30.02;4.60;;;;;;;11.24;67.05;102365.06;5988504;23;121832;-85
2022/01/22 07:12:18;;;;;;;25.15;5.00;;;;;;;11.25;66.79;102368.59;6011427;23;120068;-84
2022/01/22 07:14:48;;;;;;;27.48;4.47;;;;;;;11.26;66.87;102368.19;5988686;23;119565;-84
2022/01/22 07:17:15;;;;;;;19.13;4.25;;;;;;;11.23;67.08;102362.75;6013371;23;121916;-85
2022/01/22 07:19:45;;;;;;;19.60;4.22;;;;;;;11.23;66.40;102357.25;6036195;23;123930;-84
2022/01/22 07:25:27;;;;;;;31.50;4.70;;;;;;;11.25;66.34;102374.09;5993109;23;121940;-82
2022/01/22 07:27:56;;;;;;;21.40;4.40;;;;;;;11.25;66.64;102374.09;5993952;23;121603;-83
2022/01/22 07:30:22;;;;;;;17.40;3.38;;;;;;;11.20;66.61;102374.56;6014055;23;119269;-83
2022/01/22 07:32:48;;;;;;;15.73;3.90;;;;;;;11.22;66.52;102374.91;5988598;23;122637;-82
2022/01/22 07:35:19;;;;;;;16.95;3.65;;;;;;;11.20;66.40;102380.06;6037698;23;119526;-82
2022/01/22 08:29:34;;;;;;;6.65;3.53;;;;;;;11.19;66.95;102403.22;6063603;23;119417;-85
2022/01/22 08:32:07;;;;;;;7.55;3.47;;;;;;;11.20;66.81;102411.03;6042227;23;120371;-84
2022/01/22 08:37:20;;;;;;;7.00;3.42;;;;;;;11.20;66.85;102397.31;6039019;23;119943;-85
2022/01/22 08:39:48;;;;;;;8.10;3.45;;;;;;;11.29;66.84;102416.78;6038254;23;119853;-84
2022/01/22 08:42:14;;;;;;;10.02;5.00;;;;;;;11.23;66.87;102409.44;6037886;23;122048;-86
2022/01/22 08:44:41;;;;;;;9.27;5.43;;;;;;;11.24;67.04;102405.50;6038449;23;119735;-85
2022/01/22 10:21:27;;;;;;;5.28;1.70;;;;;;;11.85;66.58;102460.44;6061152;23;119964;-83
2022/01/22 10:23:53;;;;;;;6.80;1.48;;;;;;;11.76;66.56;102436.16;6037191;23;119913;-84
2022/01/22 10:26:21;;;;;;;2.78;1.20;;;;;;;11.86;66.55;102451.00;5989536;23;121600;-83
2022/01/22 10:28:50;;;;;;;2.72;1.30;;;;;;;11.87;66.74;102455.28;6013441;23;120443;-85
2022/01/22 10:31:21;;;;;;;3.13;1.42;;;;;;;11.83;66.62;102443.53;6037898;23;119738;-84
2022/01/22 10:34:33;;;;;;;2.80;1.55;;;;;;;11.92;66.58;102463.06;5928590;23;119954;-85
2022/01/22 11:36:52;;;;;;;5.75;1.70;;;;;;;11.79;64.81;102467.56;6060131;23;119371;-87
2022/01/22 11:39:23;;;;;;;6.43;1.40;;;;;;;11.88;64.68;102482.38;6036729;23;120915;-87
2022/01/22 11:42:11;;;;;;;8.23;1.50;;;;;;;11.92;64.35;102482.31;6013156;23;119869;-88
2022/01/22 11:44:51;;;;;;;6.47;1.50;;;;;;;11.98;64.59;102491.66;5921465;23;119545;-87
2022/01/22 11:47:22;;;;;;;6.35;1.50;;;;;;;12.00;64.59;102489.25;5922363;23;121769;-85
2022/01/22 11:50:04;;;;;;;5.47;1.63;;;;;;;11.99;64.46;102490.47;5926037;23;120104;-84
2022/01/22 14:04:14;;;;;;;1.92;0.70;;;;;;;12.12;66.97;102479.66;6060326;23;119775;-85
2022/01/22 14:06:46;;;;;;;3.67;0.70;;;;;;;12.09;66.88;102473.03;6016765;23;119782;-86
2022/01/22 14:09:20;;;;;;;1.60;0.60;;;;;;;12.11;66.43;102467.09;6037679;23;121799;-84
2022/01/22 14:12:07;;;;;;;1.92;0.60;;;;;;;12.13;66.28;102473.75;6013388;23;122947;-84
2022/01/22 14:14:58;;;;;;;0.40;0.40;;;;;;;12.18;65.93;102467.75;6043819;23;119687;-84
2022/01/22 14:17:26;;;;;;;2.10;0.60;;;;;;;12.14;66.48;102472.53;6064189;23;120419;-85
2022/01/22 14:20:10;;;;;;;2.00;0.70;;;;;;;12.16;66.25;102470.16;6038425;23;119760;-84
2022/01/22 14:23:04;;;;;;;3.15;1.00;;;;;;;12.11;66.17;102473.38;6013521;23;119951;-83
2022/01/22 14:25:34;;;;;;;2.97;0.88;;;;;;;12.06;66.10;102460.06;6038163;23;122077;-86
2022/01/22 14:28:07;;;;;;;5.78;0.90;;;;;;;12.10;65.96;102460.03;6014740;23;119750;-84
2022/01/22 14:30:44;;;;;;;3.67;0.90;;;;;;;12.10;65.76;102458.06;6014455;23;119411;-85
2022/01/22 14:33:12;;;;;;;5.80;1.00;;;;;;;12.08;65.49;102467.94;6036956;23;120182;-86
2022/01/22 14:35:39;;;;;;;3.50;0.98;;;;;;;12.05;65.76;102469.53;6043405;23;119554;-86
2022/01/22 14:38:24;;;;;;;2.88;1.55;;;;;;;12.05;66.18;102472.28;5989466;23;122893;-84
2022/01/22 14:44:05;;;;;;;3.55;1.23;;;;;;;12.00;66.65;102481.00;6038069;23;119507;-86
2022/01/22 14:46:56;;;;;;;6.28;1.02;;;;;;;11.91;66.41;102473.28;5989713;23;122844;-87
2022/01/22 14:49:27;;;;;;;5.47;1.40;;;;;;;11.85;66.34;102466.72;6014090;23;119382;-85
2022/01/22 14:51:54;;;;;;;6.88;1.20;;;;;;;11.90;66.63;102479.97;6037816;23;119790;-85
2022/01/22 14:54:20;;;;;;;7.20;1.50;;;;;;;11.89;66.24;102474.91;6037538;23;119883;-86
2022/01/22 14:56:46;;;;;;;8.38;1.40;;;;;;;11.90;66.09;102477.25;6036987;23;119687;-85
2022/01/22 14:59:12;;;;;;;4.30;1.40;;;;;;;11.81;66.49;102465.19;6018560;23;119907;-86
2022/01/22 15:01:38;;;;;;;5.85;1.70;;;;;;;11.82;66.09;102473.00;6038161;23;119546;-83
2022/01/22 15:04:03;;;;;;;9.32;1.70;;;;;;;11.88;66.20;102492.59;6037801;23;122394;-83
2022/01/22 15:07:03;;;;;;;6.05;1.50;;;;;;;11.87;66.27;102491.03;6037326;23;123339;-86
2022/01/22 15:09:30;;;;;;;5.38;1.65;;;;;;;11.80;66.27;102491.13;6013679;23;119793;-86
2022/01/22 15:11:56;;;;;;;6.43;1.90;;;;;;;11.77;66.47;102487.22;6037571;23;119524;-85
2022/01/22 15:14:27;;;;;;;7.40;1.77;;;;;;;11.75;66.23;102489.59;5989321;23;122788;-83
2022/01/22 15:17:15;;;;;;;7.45;1.60;;;;;;;11.80;66.61;102505.66;6038640;23;119981;-85
2022/01/22 15:19:43;;;;;;;4.70;2.03;;;;;;;11.74;66.01;102506.50;6062220;23;121529;-88
2022/01/22 15:22:11;;;;;;;7.60;2.40;;;;;;;11.65;66.11;102494.06;5993371;23;123258;-85
2022/01/22 15:24:41;;;;;;;6.28;1.70;;;;;;;11.67;66.38;102504.63;6064476;23;119671;-86
2022/01/22 15:27:09;;;;;;;5.13;1.80;;;;;;;11.69;66.38;102513.25;6036776;23;123309;-87
2022/01/22 15:29:43;;;;;;;3.58;1.35;;;;;;;11.65;66.20;102509.78;5989554;23;119658;-85
2022/01/22 15:32:20;;;;;;;6.43;1.30;;;;;;;11.62;66.49;102508.63;5989708;23;122322;-87
2022/01/22 15:34:57;;;;;;;7.90;1.30;;;;;;;11.66;66.44;102525.06;6037205;23;120223;-87
2022/01/22 15:37:24;;;;;;;4.50;1.27;;;;;;;11.65;66.70;102531.78;6064335;23;119258;-86
2022/01/22 15:39:50;;;;;;;5.10;1.10;;;;;;;11.65;66.34;102529.03;6013530;23;120404;-86
2022/01/22 15:42:16;;;;;;;6.28;1.42;;;;;;;11.55;66.43;102503.22;5988534;23;122743;-86
2022/01/22 15:44:42;;;;;;;5.53;1.30;;;;;;;11.57;66.55;102514.56;6042920;23;119699;-86
2022/01/22 15:47:08;;;;;;;7.15;1.25;;;;;;;11.57;66.52;102516.53;6012772;23;123116;-85
2022/01/22 15:49:34;;;;;;;7.50;1.60;;;;;;;11.61;66.71;102517.28;5989789;23;119562;-85
2022/01/22 15:52:00;;;;;;;6.20;1.38;;;;;;;11.63;66.78;102528.66;6037059;23;122234;-85
2022/01/22 15:54:27;;;;;;;9.80;1.50;;;;;;;11.63;66.80;102532.19;6037266;23;120465;-86
2022/01/22 15:56:54;;;;;;;4.88;1.35;;;;;;;11.54;66.62;102518.16;6037955;23;120323;-86
2022/01/22 15:59:22;;;;;;;4.35;1.27;;;;;;;11.65;66.77;102534.50;6037224;23;119568;-84
2022/01/22 16:01:49;;;;;;;7.18;1.70;;;;;;;11.60;66.78;102524.75;6036169;23;123067;-83
2022/01/22 16:04:16;;;;;;;5.90;1.80;;;;;;;11.66;66.61;102536.84;6013688;23;119754;-86
2022/01/22 16:06:57;;;;;;;8.52;1.50;;;;;;;11.61;66.36;102528.28;6041317;23;122141;-85
2022/01/22 16:09:28;;;;;;;6.97;1.50;;;;;;;11.58;66.75;102535.38;6037619;23;119416;-85
2022/01/22 16:11:54;;;;;;;8.63;1.58;;;;;;;11.59;66.29;102536.94;6037302;23;123058;-85
2022/01/22 16:14:19;;;;;;;14.27;2.28;;;;;;;11.59;66.49;102525.16;6037397;23;119744;-87
2022/01/22 16:16:46;;;;;;;10.40;1.70;;;;;;;11.63;66.43;102543.19;6012838;23;119615;-86
2022/01/22 16:19:15;;;;;;;8.57;1.58;;;;;;;11.64;66.53;102543.97;6036436;23;122123;-86
2022/01/22 16:21:42;;;;;;;9.93;1.70;;;;;;;11.63;66.51;102551.41;6035511;23;123692;-86
2022/01/22 16:24:09;;;;;;;9.63;1.90;;;;;;;11.57;66.13;102544.03;5988910;23;119968;-86
2022/01/22 16:26:35;;;;;;;8.00;1.45;;;;;;;11.59;66.13;102544.38;6012216;23;121633;-85
2022/01/22 16:29:01;;;;;;;8.55;1.50;;;;;;;11.62;65.96;102551.84;6041260;23;123515;-87
2022/01/22 16:31:29;;;;;;;11.57;2.00;;;;;;;11.60;66.33;102549.50;6013435;23;119825;-87
2022/01/22 16:34:06;;;;;;;9.57;2.00;;;;;;;11.57;66.18;102544.81;6036968;23;120100;-86
2022/01/22 16:36:32;;;;;;;7.32;1.67;;;;;;;11.57;66.02;102547.56;5990669;23;119871;-86
2022/01/22 16:38:58;;;;;;;10.60;1.70;;;;;;;11.59;66.18;102536.16;6014004;23;121570;-86
2022/01/22 16:41:24;;;;;;;7.57;1.60;;;;;;;11.61;66.15;102542.03;6037358;23;122623;-88
2022/01/22 16:43:58;;;;;;;6.32;1.67;;;;;;;11.61;66.01;102556.56;5989683;23;119953;-87
2022/01/22 16:59:22;;;;;;;16.08;4.07;;;;;;;11.37;66.31;102535.66;6039274;23;121196;-85
2022/01/22 17:01:50;;;;;;;12.45;2.40;;;;;;;11.47;66.34;102561.44;5989310;23;123146;-84
2022/01/22 17:04:22;;;;;;;12.55;2.88;;;;;;;11.44;66.17;102557.53;6039380;23;119843;-86
2022/01/22 17:06:50;;;;;;;8.52;2.28;;;;;;;11.43;66.37;102555.97;5990969;23;121994;-86
2022/01/22 17:14:37;;;;;;;11.73;2.80;;;;;;;11.40;66.44;102572.53;6038243;23;122932;-86
2022/01/22 17:17:03;;;;;;;12.05;2.42;;;;;;;11.45;66.44;102574.81;6038732;23;119632;-87
2022/01/22 17:19:30;;;;;;;11.35;2.40;;;;;;;11.43;66.28;102575.22;6014270;23;119708;-87
2022/01/22 17:21:56;;;;;;;9.45;2.30;;;;;;;11.34;66.41;102558.44;6012441;23;119859;-87
2022/01/22 17:24:22;;;;;;;11.65;2.38;;;;;;;11.35;67.23;102560.75;5989794;23;119634;-86
2022/01/22 17:26:48;;;;;;;11.05;2.17;;;;;;;11.40;66.93;102561.53;6037883;23;121915;-87
2022/01/22 17:29:14;;;;;;;7.35;2.10;;;;;;;11.37;66.83;102552.91;6037265;23;122729;-87
2022/01/22 17:31:40;;;;;;;8.02;2.13;;;;;;;11.40;66.75;102561.53;5989444;23;119679;-85
2022/01/22 17:34:06;;;;;;;7.55;2.03;;;;;;;11.38;66.56;102559.19;6041477;23;121719;-86
2022/01/22 17:36:32;;;;;;;5.25;1.73;;;;;;;11.32;66.48;102556.09;5989593;23;119541;-88
2022/01/22 17:38:58;;;;;;;7.97;3.42;;;;;;;11.38;66.51;102570.19;6013123;23;120918;-87
2022/01/22 17:41:25;;;;;;;7.90;2.30;;;;;;;11.36;66.35;102567.84;6013724;23;122703;-87
2022/01/22 17:43:53;;;;;;;6.90;2.25;;;;;;;11.31;66.43;102568.28;5989175;23;119881;-86
2022/01/22 17:46:19;;;;;;;5.82;2.17;;;;;;;11.37;66.44;102590.59;6013718;23;122794;-84
2022/01/22 17:48:45;;;;;;;8.27;2.08;;;;;;;11.34;66.47;102580.41;6013614;23;119802;-83
2022/01/22 17:51:11;;;;;;;7.35;1.85;;;;;;;11.37;66.11;102574.13;5990498;23;119517;-84
2022/01/22 17:53:37;;;;;;;11.15;2.17;;;;;;;11.37;66.41;102577.66;6037304;23;123073;-84
2022/01/22 17:56:05;;;;;;;9.75;1.90;;;;;;;11.38;66.12;102576.47;6039952;23;119751;-86
2022/01/22 17:58:31;;;;;;;11.63;3.03;;;;;;;11.37;66.04;102568.63;6038761;23;119831;-83
2022/01/22 18:01:05;;;;;;;12.95;2.30;;;;;;;11.38;65.98;102556.44;6038083;23;120432;-86
2022/01/22 18:03:31;;;;;;;;;;;;;;;11.34;65.81;102558.44;6037941;23;119777;-84
2022/01/22 18:05:57;;;;;;;6.20;2.00;;;;;;;11.32;65.76;102560.81;6038882;23;119995;-83
2022/01/22 18:08:24;;;;;;;10.32;2.50;;;;;;;11.37;65.88;102568.63;6036834;23;123058;-86
2022/01/22 18:10:54;;;;;;;9.27;2.03;;;;;;;11.31;66.04;102556.50;5989889;23;120069;-84
2022/01/22 18:13:20;;;;;;;10.65;2.53;;;;;;;11.35;66.03;102559.97;5989445;23;121959;-83
2022/01/22 18:15:49;;;;;;;8.90;2.30;;;;;;;11.36;65.89;102572.56;6013212;23;120031;-82
2022/01/22 18:18:15;;;;;;;11.70;2.60;;;;;;;11.35;65.76;102566.25;6069415;23;119387;-85
2022/01/22 18:20:41;;;;;;;8.38;2.13;;;;;;;11.35;65.82;102557.25;6063976;23;120143;-86
2022/01/22 18:23:06;;;;;;;10.38;3.22;;;;;;;11.30;65.66;102549.44;5989215;23;119912;-83
2022/01/22 18:25:32;;;;;;;10.50;2.70;;;;;;;11.27;65.80;102547.53;6038449;23;122389;-83
2022/01/22 18:28:00;;;;;;;11.57;2.55;;;;;;;11.32;65.69;102553.34;5989426;23;123171;-83
2022/01/22 18:30:26;;;;;;;12.25;2.80;;;;;;;11.27;65.47;102556.53;6037810;23;119404;-86
2022/01/22 18:32:51;;;;;;;9.88;2.40;;;;;;;11.27;65.72;102559.28;6013618;23;122326;-83
2022/01/22 18:35:20;;;;;;;8.55;2.85;;;;;;;11.34;66.17;102569.41;5989177;23;122739;-82
2022/01/22 18:37:46;;;;;;;10.32;3.08;;;;;;;11.30;65.90;102563.19;6063234;23;119858;-82
2022/01/22 18:40:14;;;;;;;11.57;2.72;;;;;;;11.35;65.90;102563.50;6017856;23;121680;-83
2022/01/22 18:42:41;;;;;;;8.60;2.78;;;;;;;11.32;65.89;102566.31;5989041;23;120449;-84
2022/01/22 18:45:09;;;;;;;8.02;2.75;;;;;;;11.35;65.62;102570.97;6013326;23;119524;-84
2022/01/22 18:47:35;;;;;;;9.20;3.05;;;;;;;11.27;65.64;102558.50;5989265;23;121398;-81
2022/01/22 18:50:01;;;;;;;13.05;3.22;;;;;;;11.38;65.84;102575.69;6064066;23;119529;-85
2022/01/22 18:52:30;;;;;;;9.55;2.65;;;;;;;11.41;65.50;102587.81;6038093;23;120033;-84
2022/01/22 18:54:55;;;;;;;9.93;2.88;;;;;;;11.36;65.46;102575.31;6037227;23;121616;-83
2022/01/22 18:57:21;;;;;;;11.93;3.22;;;;;;;11.43;65.74;102577.97;6037946;23;119557;-84